^^

..:: Metar reader and decoder ::..





LIPK - Forli (civ/It-Af, Italy
Distanza dalla stazione: SE 154km
Dati ricevuti: Thu, 23-May-2024 20:50
Sereno
Sereno
 Vento da NO
Vento: NO 9 km/h
Temperatura: 18°C
P.to Rugiada: 9°C
Umidità: 56%
Barometro: 1017 hPa
Sommario: Sereno
Visibilità: superiore a 10 km
2024/05/23 18:50 LIPK 231850Z 31005KT CAVOK 18/09 Q1017
LIRX - Monte Calamita, Italy
Dati ricevuti: Thu, 23-May-2024 20:55

 Vento da NNO
Vento: NNO 13 km/h
Temperatura: 15°C
P.to Rugiada: 11°C
Umidità: 77%
Barometro: 1017 hPa
2024/05/23 18:55 LIRX 231855Z AUTO 34007KT //// 15/11 Q1017
 
LIVM - Punta Marina/Rav, Italy
Dati ricevuti: Thu, 23-May-2024 20:55

 Vento da Variabile
Vento: Variabile 6 km/h
Temperatura: 22°C
P.to Rugiada: 16°C
Umidità: 69%
Barometro: 1016 hPa
2024/05/23 18:55 LIVM 231855Z AUTO VRB03KT //// 22/16 Q1016
LIMV - Passo dei Giovi, Italy
Distanza dalla stazione: OSO 152km
Dati ricevuti: Thu, 23-May-2024 19:55
DATI Obsoleti
Parz. nuvoloso
Parz. nuvoloso
 Vento da Variabile
Vento: Variabile 0 km/h
Temperatura: 14°C
P.to Rugiada: 13°C
Umidità: 94%
Barometro: 1017 hPa
Nuvole: Parz. nuvoloso
Visibilità: 8 km
Dettaglio nuvole: Few Clouds 183 m
Parz. nuvoloso 244 m
2024/05/23 17:55 LIMV 231755Z /////KT 8000 FEW006CB SCT008TCU 14/13 Q1017
 
LIPB - Bolzano(Civ/It-A, Italy
Distanza dalla stazione: NNE 152km
Dati ricevuti: Thu, 23-May-2024 20:50
Parz. nuvoloso
Parz. nuvoloso
 Vento da SE
Vento: SE 6 km/h
Temperatura: 13°C
P.to Rugiada: 12°C
Umidità: 94%
Barometro: 1016 hPa
Nuvole: Parz. nuvoloso
Visibilità: 10 km
Dettaglio nuvole: Parz. nuvoloso 2438 m
2024/05/23 18:50 LIPB 231850Z 14003KT 9999 SCT080 13/12 Q1016
LIVD - Bolzano-Dobbiaco, Italy
Dati ricevuti: Thu, 23-May-2024 20:55

 Vento da Variabile
Vento: Variabile 4 km/h
Temperatura: 9°C
P.to Rugiada: 8°C
Umidità: 94%
Barometro: 1019 hPa
2024/05/23 18:55 LIVD 231855Z AUTO VRB02KT //// 09/08 Q1019
 
LIVE - Bolzano-Passo Resia, Italy
Distanza dalla stazione: NO 160km
Dati ricevuti: Thu, 23-May-2024 20:55
Molto nuvoloso
Molto nuvoloso
 Vento da SE
Vento: SE 13 km/h
Temperatura: 8°C
Temperatura del Vento: 6°C
P.to Rugiada: 6°C
Umidità: 87%
Barometro: 1016 hPa
Nuvole: Molto nuvoloso
Visibilità: 10 km
Dettaglio nuvole: Few Clouds 366 m
Molto nuvoloso 671 m
2024/05/23 18:55 LIVE 231855Z 14007KT 9999 FEW012 BKN022 08/06 Q1016
LIMH - Aosta-Pian Rosa (mtn T, Italy
Dati ricevuti: Thu, 23-May-2024 20:55

 Vento da NE
Vento: NE 17 km/h
Temperatura: -6°C
Temperatura del Vento: -12°C
P.to Rugiada: -6°C
Umidità: 100%
Barometro: 1020 hPa
2024/05/23 18:55 LIMH 231855Z AUTO 05009KT //// M06/M06 Q1020
 
LIMZ - Cuneo/Levaldigi, Italy
Dati ricevuti: Thu, 23-May-2024 21:20

 Vento da ENE
Vento: ENE 6 km/h
Temperatura: 13°C
P.to Rugiada: 11°C
Umidità: 88%
Barometro: 1017 hPa
Visibilità: 10 km
2024/05/23 19:20 LIMZ 231920Z AUTO 07003KT 9999 ///////// 13/11 Q1017
LIMK - Torino-Bric Della Croce, Italy
Dati ricevuti: Thu, 23-May-2024 20:55

 Vento da ONO
Vento: ONO 6 km/h
Temperatura: 13°C
P.to Rugiada: 11°C
Umidità: 88%
Barometro: 1016 hPa
2024/05/23 18:55 LIMK 231855Z AUTO 29003KT //// 13/11 Q1016
 
LIMN - Novara-Cameri (it-Afb), Italy
Dati ricevuti: Thu, 23-May-2024 19:55
DATI Obsoleti
Parz. nuvoloso
Parz. nuvoloso
 Vento da calmo
Vento: Calma
Temperatura: 17°C
P.to Rugiada: 12°C
Umidità: 73%
Barometro: 1016 hPa
Nuvole: Parz. nuvoloso
Visibilità: 10 km
Dettaglio nuvole: Few Clouds 610 m
Parz. nuvoloso 914 m
2024/05/23 17:55 LIMN 231755Z 00000KT 9999 FEW020CB SCT030 17/12 Q1016
LIPA - Pordenone-Aviano (it/Us-Af, Italy
Dati ricevuti: Thu, 23-May-2024 20:55
Parz. nuvoloso
Parz. nuvoloso
 Vento da E
Vento: E 9 km/h
Temperatura: 15°C
P.to Rugiada: 13°C
Umidità: 88%
Barometro: 1015 hPa
Nuvole: Parz. nuvoloso
Visibilità: 10 km
Dettaglio nuvole: Parz. nuvoloso 2438 m
2024/05/23 18:55 LIPA 231855Z 09005KT 9999 SCT080 15/13 Q1015
 
LIPI - Udine-Rivolto (it-Afb), Italy
Dati ricevuti: Thu, 23-May-2024 20:55
Nearby thunderstorm, Parz. nuvoloso
Nearby thunderstorm, Parz. nuvoloso
 Vento da N
Vento: N 11 km/h
Temperatura: 14°C
P.to Rugiada: 13°C
Umidità: 94%
Barometro: 1015 hPa
Sommario: Nearby Thunderstorm
Nuvole: Parz. nuvoloso
Visibilità: 10 km
Dettaglio nuvole: Few Clouds 610 m
Parz. nuvoloso 1524 m
2024/05/23 18:55 LIPI 231855Z 36006KT 9999 VCTS FEW020CB SCT050 14/13 Q1015 RETS
LIVO - Udine-Tarvisio, Italy
Dati ricevuti: Thu, 23-May-2024 21:28
unable to load LIVO data RC=
unable to load LIVO data RC=
 
 
LIPQ - Trieste-Ronchi Dei Legionari, Italy
Dati ricevuti: Thu, 23-May-2024 21:20
Molto nuvoloso
Molto nuvoloso
 Vento da NNE
Vento: NNE 7 km/h
Temperatura: 15°C
P.to Rugiada: 11°C
Umidità: 77%
Barometro: 1016 hPa
Nuvole: Molto nuvoloso
Visibilità: 10 km
Dettaglio nuvole: Few Clouds 2926 m
Molto nuvoloso 4572 m
Molto nuvoloso 7010 m
2024/05/23 19:20 LIPQ 231920Z AUTO 02004KT 350V060 9999 FEW096/// BKN150/// BKN230/// 15/11 Q1016
LIVT - Trieste, Italy
Dati ricevuti: Thu, 23-May-2024 20:55

 Vento da NO
Vento: NO 9 km/h, Raffica: 30 km/h
Temperatura: 20°C
P.to Rugiada: 13°C
Umidità: 64%
Barometro: 1016 hPa
2024/05/23 18:55 LIVT 231855Z AUTO 32005G16KT 290V020 //// 20/13 Q1016
 
LIRQ - Firenze/Peretola, Italy
Dati ricevuti: Thu, 23-May-2024 21:20
Sereno
Sereno
 Vento da SO
Vento: SO 9 km/h
Temperatura: 19°C
P.to Rugiada: 11°C
Umidità: 60%
Barometro: 1017 hPa
Sommario: Sereno
Visibilità: superiore a 10 km
2024/05/23 19:20 LIRQ 231920Z 22005KT CAVOK 19/11 Q1017
LIRP - Pisa (civ/It-Afb, Italy
Dati ricevuti: Thu, 23-May-2024 20:45
Parz. nuvoloso
Parz. nuvoloso
 Vento da NO
Vento: NO 7 km/h
Temperatura: 19°C
P.to Rugiada: 17°C
Umidità: 88%
Barometro: 1017 hPa
Nuvole: Parz. nuvoloso
Visibilità: 10 km
Dettaglio nuvole: Parz. nuvoloso 762 m
2024/05/23 18:45 LIRP 231845Z 31004KT 9999 SCT025 19/17 Q1017 NOSIG
 
LIRA - Roma-Ciampino(It-Afb/, Italy
Dati ricevuti: Thu, 23-May-2024 21:20
Sereno
Sereno
 Vento da SO
Vento: SO 7 km/h
Temperatura: 18°C
P.to Rugiada: 13°C
Umidità: 73%
Barometro: 1019 hPa
Sommario: Sereno
Visibilità: superiore a 10 km
2024/05/23 19:20 LIRA 231920Z 22004KT CAVOK 18/13 Q1019
LIRU - Rome/Urbe (it-Af, Italy
Dati ricevuti: Thu, 23-May-2024 19:50
DATI Obsoleti
Sereno
Sereno
 Vento da SO
Vento: SO 15 km/h
Temperatura: 21°C
P.to Rugiada: 10°C
Umidità: 50%
Barometro: 1017 hPa
Sommario: Sereno
Visibilità: superiore a 10 km
2024/05/23 17:50 LIRU 231750Z 23008KT 200V260 CAVOK 21/10 Q1017




METEO PILLOLE
Maggior quantità di pioggia caduta in 6 ore in Italia
Cairo Montenotte (Savona)
Il 4 ottobre 2021 caddero 496mm di pioggia.

Do NOT follow this link or you will be banned from the site!